Midland, TX

5:39 PM CST on February 20, 2017 (GMT -0600)
Midland

Weather History for KMDD - October, 2013

Change the Weather History Date:

Friday, October 4, 2013

  Actual Average (KMAF) Record (KMAF)
Temperature  
Mean Temperature 82 °F -  
Max Temperature 95 °F 79 °F 96 °F (2000)
Min Temperature 71 °F 55 °F 41 °F (1932)
Cooling Degree Days 18    
Growing Degree Days 32 (Base 50)    
Moisture  
Dew Point 55 °F    
Average Humidity 46    
Maximum Humidity 77    
Minimum Humidity 10    
Precipitation  
Precipitation 0.00 in - - ()
Sea Level Pressure  
Sea Level Pressure 29.88 in    
Wind  
Wind Speed 11 mph (SSW)    
Max Wind Speed 17 mph    
Max Gust Speed 22 mph    
Visibility 10 miles    
Events      
Averages and records for this station are not official NWS values.
T = Trace of Precipitation, MM = Missing Value Source: NWS Daily Summary

Daily Weather History Graph

Daily Weather History Graph

Search for Another Location

Airport or City:

Trip Planner

Search our weather history database for the weather conditions in past years. The results will help you decide how hot, cold, wet, or windy it might be!

Date:

Astronomy

Oct. 04, 2013 Rise Set
Actual Time 7:44 AM CDT 7:29 PM CDT
Civil Twilight 7:20 AM CDT 7:53 PM CDT
Nautical Twilight 6:51 AM CDT 8:21 PM CDT
Astronomical Twilight 6:23 AM CDT 8:50 PM CDT
Moon 7:21 AM CDT (10/4) 7:15 PM CDT (10/4)
Length of Visible Light 12h 33m
Length of Day
11h 44m
Waning Crescent, 0% of the Moon is Illuminated
Oct 4
Waning Crescent
Oct 4
New
Oct 11
First Quarter
Oct 18
Full
Oct 26
Last Quarter

Hourly Weather History & Observations

Time (CDT) Temp. Heat Index Dew Point Humidity Pressure Visibility Wind Dir Wind Speed Gust Speed Precip Events Conditions
12:15 AM 77.4 °F - 60.8 °F 57% 29.85 in 10.0 mi South 12.7 mph - N/A   Clear
12:35 AM 77.0 °F - 61.0 °F 58% 29.86 in 10.0 mi South 13.8 mph - N/A   Clear
12:55 AM 76.6 °F - 61.9 °F 60% 29.85 in 10.0 mi South 11.5 mph - N/A   Clear
1:15 AM 76.8 °F - 62.2 °F 61% 29.85 in 10.0 mi South 13.8 mph - N/A   Clear
1:35 AM 76.6 °F - 62.6 °F 62% 29.86 in 10.0 mi SSW 13.8 mph - N/A   Clear
1:55 AM 76.6 °F - 62.6 °F 62% 29.87 in 10.0 mi SSW 10.4 mph 18.4 mph N/A   Scattered Clouds
2:15 AM 76.8 °F - 62.2 °F 61% 29.87 in 10.0 mi South 10.4 mph 17.3 mph N/A   Scattered Clouds
2:35 AM 76.5 °F - 62.1 °F 61% 29.88 in 10.0 mi SSW 8.1 mph - N/A   Scattered Clouds
2:55 AM 75.9 °F - 61.7 °F 61% 29.88 in 10.0 mi SW 4.6 mph - N/A   Scattered Clouds
3:15 AM 75.0 °F - 61.7 °F 63% 29.88 in 10.0 mi SW 4.6 mph - N/A   Scattered Clouds
3:35 AM 74.5 °F - 61.7 °F 64% 29.88 in 10.0 mi SW 3.5 mph - N/A   Mostly Cloudy
3:55 AM 73.6 °F - 61.7 °F 66% 29.87 in 10.0 mi SSE 3.5 mph - N/A   Scattered Clouds
4:15 AM 73.8 °F - 61.7 °F 66% 29.87 in 10.0 mi SSE 8.1 mph - N/A   Scattered Clouds
4:35 AM 74.7 °F - 61.7 °F 64% 29.86 in 10.0 mi South 12.7 mph - N/A   Scattered Clouds
4:55 AM 74.8 °F - 61.7 °F 64% 29.87 in 10.0 mi South 12.7 mph - N/A   Clear
5:15 AM 74.3 °F - 61.3 °F 64% 29.87 in 10.0 mi South 9.2 mph - N/A   Clear
5:35 AM 73.9 °F - 61.7 °F 65% 29.87 in 10.0 mi South 11.5 mph 16.1 mph N/A   Clear
5:55 AM 73.4 °F - 61.7 °F 67% 29.87 in 10.0 mi South 12.7 mph - N/A   Clear
6:15 AM 73.4 °F - 62.2 °F 68% 29.87 in 10.0 mi South 12.7 mph - N/A   Clear
6:35 AM 73.2 °F - 62.6 °F 69% 29.87 in 10.0 mi South 12.7 mph - N/A   Clear
6:55 AM 72.9 °F - 63.0 °F 71% 29.87 in 10.0 mi South 13.8 mph 19.6 mph N/A   Clear
7:15 AM 72.5 °F - 63.7 °F 74% 29.87 in 10.0 mi South 16.1 mph - N/A   Clear
7:35 AM 72.5 °F - 63.9 °F 74% 29.88 in 10.0 mi South 13.8 mph - N/A   Clear
7:55 AM 72.0 °F - 64.0 °F 76% 29.88 in 10.0 mi South 11.5 mph - N/A   Scattered Clouds
8:15 AM 71.8 °F - 64.0 °F 77% 29.88 in 10.0 mi South 12.7 mph - N/A   Clear
8:35 AM 72.5 °F - 64.4 °F 76% 29.89 in 10.0 mi South 12.7 mph 20.7 mph N/A   Scattered Clouds
8:55 AM 73.4 °F - 64.4 °F 73% 29.89 in 10.0 mi South 13.8 mph 20.7 mph N/A   Clear
9:15 AM 74.3 °F - 64.4 °F 71% 29.90 in 10.0 mi South 11.5 mph - N/A   Clear
9:35 AM 75.4 °F - 64.2 °F 68% 29.90 in 10.0 mi South 15.0 mph 20.7 mph N/A   Clear
9:55 AM 75.6 °F - 63.9 °F 67% 29.90 in 10.0 mi South 13.8 mph 18.4 mph N/A   Scattered Clouds
10:15 AM 77.2 °F - 63.5 °F 63% 29.91 in 10.0 mi South 13.8 mph 18.4 mph N/A   Clear
10:35 AM 78.6 °F - 63.0 °F 59% 29.91 in 10.0 mi South 17.3 mph - N/A   Clear
10:55 AM 80.1 °F 81.4 °F 62.6 °F 55% 29.92 in 10.0 mi South 13.8 mph 20.7 mph N/A   Clear
11:15 AM 81.5 °F 82.2 °F 61.0 °F 50% 29.92 in 10.0 mi South 16.1 mph 20.7 mph N/A   Clear
11:35 AM 82.4 °F 82.9 °F 60.6 °F 48% 29.92 in 10.0 mi SSW 13.8 mph - N/A   Clear
11:55 AM 83.5 °F 83.7 °F 60.8 °F 46% 29.91 in 10.0 mi SSW 15.0 mph - N/A   Clear
12:15 PM 84.7 °F 84.4 °F 59.0 °F 42% 29.91 in 10.0 mi SSW 13.8 mph 19.6 mph N/A   Clear
12:35 PM 86.0 °F 85.0 °F 57.9 °F 38% 29.91 in 10.0 mi SW 13.8 mph 17.3 mph N/A   Clear
12:55 PM 86.4 °F 85.2 °F 57.2 °F 37% 29.91 in 10.0 mi SW 11.5 mph - N/A   Clear
1:15 PM 87.3 °F 85.9 °F 56.1 °F 35% 29.90 in 10.0 mi SSW 11.5 mph 16.1 mph N/A   Clear
1:35 PM 89.1 °F 86.9 °F 53.8 °F 30% 29.89 in 10.0 mi WSW 13.8 mph - N/A   Clear
1:55 PM 89.8 °F - 50.0 °F 25% 29.89 in 10.0 mi WSW 11.5 mph 17.3 mph N/A   Clear
2:15 PM 90.5 °F - 46.0 °F 21% 29.87 in 10.0 mi SW 9.2 mph 16.1 mph N/A   Clear
2:35 PM 92.5 °F - 42.6 °F 18% 29.86 in 10.0 mi WSW 10.4 mph 17.3 mph N/A   Clear
2:55 PM 92.8 °F - 37.9 °F 15% 29.85 in 10.0 mi SW 9.2 mph 18.4 mph N/A   Clear
3:15 PM 94.3 °F - 32.0 °F 11% 29.85 in 10.0 mi WSW 11.5 mph - N/A   Clear
3:35 PM 94.5 °F - 30.9 °F 11% 29.84 in 10.0 mi SSW 13.8 mph 18.4 mph N/A   Clear
3:55 PM 94.5 °F - 29.8 °F 10% 29.84 in 10.0 mi SW 12.7 mph 18.4 mph N/A   Clear
4:15 PM 94.5 °F - 30.0 °F 10% 29.84 in 10.0 mi SW 15.0 mph 21.9 mph N/A   Clear
4:35 PM 94.5 °F - 32.7 °F 11% 29.84 in 10.0 mi SW 10.4 mph 20.7 mph N/A   Clear
4:55 PM 94.3 °F - 33.6 °F 12% 29.84 in 10.0 mi SW 12.7 mph 19.6 mph N/A   Clear
5:15 PM 94.3 °F - 33.8 °F 12% 29.83 in 10.0 mi WSW 10.4 mph 18.4 mph N/A   Clear
5:35 PM 94.1 °F - 34.5 °F 12% 29.83 in 10.0 mi SW 11.5 mph 18.4 mph N/A   Clear
5:55 PM 93.9 °F - 34.7 °F 12% 29.83 in 10.0 mi WSW 9.2 mph - N/A   Clear
6:15 PM 93.2 °F - 34.0 °F 12% 29.83 in 10.0 mi SW 8.1 mph - N/A   Clear
6:35 PM 92.7 °F - 33.8 °F 12% 29.83 in 10.0 mi SW 11.5 mph - N/A   Clear
6:55 PM 92.1 °F - 34.0 °F 13% 29.84 in 10.0 mi SSW 9.2 mph - N/A   Clear
7:15 PM 90.9 °F - 33.8 °F 13% 29.84 in 10.0 mi SSW 6.9 mph - N/A   Clear
7:35 PM 89.1 °F - 33.8 °F 14% 29.84 in 10.0 mi South 6.9 mph - N/A   Clear
7:55 PM 87.8 °F - 33.8 °F 15% 29.85 in 10.0 mi SSW 5.8 mph - N/A   Clear
8:15 PM 86.5 °F - 51.4 °F 30% 29.86 in 10.0 mi SSE 11.5 mph - N/A   Clear
8:35 PM 84.9 °F 84.8 °F 60.1 °F 43% 29.88 in 10.0 mi SSW 10.4 mph - N/A   Clear
8:55 PM 84.4 °F 84.0 °F 59.2 °F 42% 29.90 in 10.0 mi WSW 11.5 mph - N/A   Clear
9:15 PM 83.7 °F 84.1 °F 61.3 °F 47% 29.90 in 10.0 mi SSW 10.4 mph - N/A   Clear
9:35 PM 83.1 °F 83.7 °F 61.7 °F 48% 29.91 in 10.0 mi SSW 6.9 mph - N/A   Clear
9:55 PM 82.4 °F 83.0 °F 61.7 °F 49% 29.93 in 10.0 mi SSW 10.4 mph - N/A   Clear
10:15 PM 81.7 °F 82.7 °F 62.2 °F 52% 29.93 in 10.0 mi South 9.2 mph - N/A   Clear
10:35 PM 81.0 °F 82.1 °F 62.6 °F 53% 29.94 in 10.0 mi SSW 8.1 mph - N/A   Clear
10:55 PM 80.4 °F 81.8 °F 63.5 °F 56% 29.94 in 10.0 mi SSW 8.1 mph - N/A   Clear
11:15 PM 79.9 °F - 63.5 °F 57% 29.95 in 10.0 mi SSW 10.4 mph - N/A   Clear
11:35 PM 79.2 °F - 63.7 °F 59% 29.95 in 10.0 mi SSW 9.2 mph - N/A   Clear
11:55 PM 79.2 °F - 63.9 °F 59% 29.95 in 10.0 mi SSW 10.4 mph - N/A   Clear